createdAt,value
2022-10-21T00:00:38.291Z,11.99
2022-10-21T00:02:38.575Z,12.06
2022-10-21T00:03:38.183Z,12.06
2022-10-21T00:04:38.195Z,11.99
2022-10-21T00:05:38.161Z,11.99
2022-10-21T00:06:38.218Z,12.06
2022-10-21T00:07:38.245Z,12.06
2022-10-21T00:08:38.293Z,12.06
2022-10-21T00:09:38.201Z,12.06
2022-10-21T00:11:38.212Z,12.06
2022-10-21T00:12:38.521Z,12.06
2022-10-21T00:13:38.192Z,12.06
2022-10-21T00:14:38.239Z,12.06
2022-10-21T00:15:38.240Z,11.99
2022-10-21T00:16:38.292Z,11.99
2022-10-21T00:17:38.273Z,11.99
2022-10-21T00:18:38.295Z,11.99
2022-10-21T00:19:38.302Z,11.91
2022-10-21T00:20:39.697Z,11.99
2022-10-21T00:21:38.338Z,11.91
2022-10-21T00:22:38.521Z,11.91
2022-10-21T00:23:38.157Z,11.91
2022-10-21T00:24:38.206Z,11.91
2022-10-21T00:25:38.203Z,11.91
2022-10-21T00:26:38.569Z,11.84
2022-10-21T00:27:38.655Z,11.84
2022-10-21T00:28:38.267Z,11.84
2022-10-21T00:29:38.214Z,11.91
2022-10-21T00:30:40.258Z,11.84
2022-10-21T00:31:38.266Z,11.84
2022-10-21T00:32:38.745Z,11.91
2022-10-21T00:33:38.206Z,11.84
2022-10-21T00:34:38.161Z,11.91
2022-10-21T00:35:38.265Z,11.91
2022-10-21T00:36:38.173Z,11.91
2022-10-21T00:37:38.441Z,11.91
2022-10-21T00:38:38.160Z,11.91
2022-10-21T00:39:38.195Z,11.99
2022-10-21T00:40:38.344Z,11.99
2022-10-21T00:41:38.303Z,11.99
2022-10-21T00:42:40.800Z,11.99
2022-10-21T00:43:38.321Z,11.99
2022-10-21T00:44:38.226Z,11.99
2022-10-21T00:45:38.228Z,11.99
2022-10-21T00:46:38.198Z,11.99
2022-10-21T00:47:38.206Z,11.99
2022-10-21T00:48:38.283Z,11.99
2022-10-21T00:49:38.249Z,11.99
2022-10-21T00:50:41.701Z,12.06
2022-10-21T00:51:38.199Z,12.06
2022-10-21T00:52:38.552Z,12.06
2022-10-21T00:53:38.161Z,11.99
2022-10-21T00:54:38.182Z,12.06
2022-10-21T00:55:38.189Z,11.99
2022-10-21T00:56:38.410Z,11.99
2022-10-21T00:57:38.521Z,12.06
2022-10-21T00:58:38.227Z,12.06
2022-10-21T00:59:38.277Z,12.06
2022-10-21T01:00:38.275Z,12.06
2022-10-21T01:01:38.295Z,11.99
2022-10-21T01:02:38.230Z,12.06
2022-10-21T01:03:38.194Z,11.99
2022-10-21T01:04:38.237Z,11.99
2022-10-21T01:05:38.279Z,11.99
2022-10-21T01:06:38.266Z,12.06
2022-10-21T01:07:41.075Z,12.06
2022-10-21T01:08:38.325Z,11.99
2022-10-21T01:09:38.305Z,11.99
2022-10-21T01:10:38.179Z,11.99
2022-10-21T01:11:38.327Z,11.99
2022-10-21T01:12:38.339Z,11.99
2022-10-21T01:13:38.201Z,11.99
2022-10-21T01:14:38.264Z,11.99
2022-10-21T01:15:38.526Z,11.99
2022-10-21T01:16:38.205Z,11.99
2022-10-21T01:17:44.891Z,11.99
2022-10-21T01:18:38.235Z,12.06
2022-10-21T01:19:38.222Z,12.06
2022-10-21T01:20:38.241Z,11.99
2022-10-21T01:21:38.255Z,11.99
2022-10-21T01:22:38.284Z,11.99
2022-10-21T01:23:38.203Z,12.06
2022-10-21T01:24:38.200Z,12.06
2022-10-21T01:25:38.189Z,11.99
2022-10-21T01:26:38.158Z,11.99
2022-10-21T01:27:38.564Z,11.99
2022-10-21T01:28:38.226Z,11.99
2022-10-21T01:29:38.203Z,11.99
2022-10-21T01:30:38.205Z,11.99
2022-10-21T01:31:38.375Z,11.99
2022-10-21T01:32:38.227Z,11.91
2022-10-21T01:33:38.186Z,11.99
2022-10-21T01:34:38.228Z,11.99
2022-10-21T01:35:38.247Z,11.99
2022-10-21T01:36:38.286Z,11.99
2022-10-21T01:37:40.688Z,11.99
2022-10-21T01:38:38.172Z,11.91
2022-10-21T01:39:38.296Z,11.91
2022-10-21T01:40:38.309Z,11.84
2022-10-21T01:41:38.286Z,11.84
2022-10-21T01:42:38.593Z,11.84
2022-10-21T01:43:38.279Z,11.77
2022-10-21T01:44:38.254Z,11.77
2022-10-21T01:45:38.216Z,11.77
2022-10-21T01:46:38.208Z,11.77
2022-10-21T01:47:38.221Z,11.77
2022-10-21T01:48:38.322Z,11.77
2022-10-21T01:49:38.168Z,11.77
2022-10-21T01:50:38.233Z,11.77
2022-10-21T01:51:38.255Z,11.69
2022-10-21T01:52:38.574Z,11.69
2022-10-21T01:53:38.211Z,11.69
2022-10-21T01:54:38.266Z,11.77
2022-10-21T01:55:38.271Z,11.77
2022-10-21T01:56:38.218Z,11.77
2022-10-21T01:57:38.175Z,11.77
2022-10-21T01:58:38.333Z,11.77
2022-10-21T01:59:38.294Z,11.77
2022-10-21T02:00:38.317Z,11.77
2022-10-21T02:01:38.168Z,11.84
2022-10-21T02:02:38.465Z,11.84
2022-10-21T02:03:38.203Z,11.84
2022-10-21T02:04:38.195Z,11.84
2022-10-21T02:05:38.233Z,11.84
2022-10-21T02:06:38.242Z,11.91
2022-10-21T02:07:38.158Z,11.91
2022-10-21T02:08:38.350Z,11.91
2022-10-21T02:09:38.267Z,11.91
2022-10-21T02:10:38.287Z,11.91
2022-10-21T02:11:38.266Z,11.91
2022-10-21T02:12:38.467Z,11.99
2022-10-21T02:13:38.216Z,11.99
2022-10-21T02:14:38.219Z,11.99
2022-10-21T02:15:38.187Z,11.99
2022-10-21T02:16:38.229Z,11.99
2022-10-21T02:17:38.204Z,11.99
2022-10-21T02:18:38.256Z,11.99
2022-10-21T02:19:38.265Z,11.99
2022-10-21T02:20:38.257Z,11.99
2022-10-21T02:21:38.302Z,11.99
2022-10-21T02:22:38.796Z,11.99
2022-10-21T02:23:38.356Z,11.99
2022-10-21T02:24:38.532Z,11.99
2022-10-21T02:25:38.261Z,11.99
2022-10-21T02:26:38.263Z,11.99
2022-10-21T02:27:38.244Z,11.99
2022-10-21T02:28:38.197Z,11.99
2022-10-21T02:29:38.281Z,11.99
2022-10-21T02:30:38.284Z,11.99
2022-10-21T02:31:38.207Z,11.99
2022-10-21T02:32:38.512Z,12.06
2022-10-21T02:33:38.171Z,12.06
2022-10-21T02:34:38.210Z,11.99
2022-10-21T02:35:38.214Z,12.06
2022-10-21T02:36:38.177Z,12.06
2022-10-21T02:38:38.242Z,11.99
2022-10-21T02:39:38.183Z,12.06
2022-10-21T02:40:38.292Z,12.06
2022-10-21T02:41:38.266Z,11.99
2022-10-21T02:42:38.487Z,11.99
2022-10-21T02:43:38.251Z,11.99
2022-10-21T02:44:40.303Z,11.99
2022-10-21T02:45:38.288Z,11.99
2022-10-21T02:46:38.298Z,11.99
2022-10-21T02:47:38.504Z,11.99
2022-10-21T02:48:38.209Z,11.99
2022-10-21T02:49:38.180Z,11.91
2022-10-21T02:50:38.216Z,11.91
2022-10-21T02:51:38.177Z,11.91
2022-10-21T02:52:38.332Z,11.99
2022-10-21T02:53:38.289Z,11.91
2022-10-21T02:54:38.237Z,11.99
2022-10-21T02:55:38.422Z,11.91
2022-10-21T02:56:38.286Z,11.91
2022-10-21T02:57:38.472Z,11.91
2022-10-21T02:58:38.315Z,11.91
2022-10-21T02:59:38.333Z,11.91
2022-10-21T03:00:38.334Z,11.91
2022-10-21T03:01:38.335Z,11.91
2022-10-21T03:02:38.347Z,11.91
2022-10-21T03:03:38.404Z,11.91
2022-10-21T03:04:38.446Z,11.91
2022-10-21T03:05:38.528Z,11.91
2022-10-21T03:06:38.454Z,11.84
2022-10-21T03:07:38.894Z,11.84
2022-10-21T03:08:38.536Z,11.84
2022-10-21T03:09:38.281Z,11.84
2022-10-21T03:10:38.238Z,11.84
2022-10-21T03:11:38.303Z,11.84
2022-10-21T03:12:38.265Z,11.77
2022-10-21T03:13:38.384Z,11.77
2022-10-21T03:14:38.236Z,11.77
2022-10-21T03:15:38.279Z,11.77
2022-10-21T03:16:38.213Z,11.77
2022-10-21T03:17:38.670Z,11.77
2022-10-21T03:18:38.187Z,11.77
2022-10-21T03:19:38.189Z,11.77
2022-10-21T03:20:38.237Z,11.77
2022-10-21T03:21:38.199Z,11.77
2022-10-21T03:22:38.247Z,11.84
2022-10-21T03:23:38.265Z,11.84
2022-10-21T03:24:38.350Z,11.77
2022-10-21T03:25:38.231Z,11.77
2022-10-21T03:26:38.249Z,11.77
2022-10-21T03:27:38.273Z,11.77
2022-10-21T03:28:38.318Z,11.77
2022-10-21T03:29:38.172Z,11.77
2022-10-21T03:30:38.274Z,11.77
2022-10-21T03:31:38.269Z,11.77
2022-10-21T03:32:38.566Z,11.77
2022-10-21T03:33:38.182Z,11.77
2022-10-21T03:34:38.243Z,11.77
2022-10-21T03:35:38.232Z,11.77
2022-10-21T03:36:38.229Z,11.77
2022-10-21T03:37:38.193Z,11.77
2022-10-21T03:38:38.216Z,11.77
2022-10-21T03:39:38.286Z,11.69
2022-10-21T03:40:38.336Z,11.77
2022-10-21T03:41:38.237Z,11.77
2022-10-21T03:42:38.479Z,11.77
2022-10-21T03:43:38.212Z,11.77
2022-10-21T03:44:38.283Z,11.77
2022-10-21T03:45:38.261Z,11.84
2022-10-21T03:46:38.270Z,11.77
2022-10-21T03:47:38.273Z,11.77
2022-10-21T03:48:38.178Z,11.77
2022-10-21T03:49:38.193Z,11.77
2022-10-21T03:50:38.288Z,11.77
2022-10-21T03:51:40.237Z,11.77
2022-10-21T03:52:38.561Z,11.77
2022-10-21T03:53:43.429Z,11.77
2022-10-21T03:54:38.208Z,11.84
2022-10-21T03:55:38.323Z,11.84
2022-10-21T03:56:38.222Z,11.77
2022-10-21T03:57:38.714Z,11.77
2022-10-21T03:58:38.298Z,11.77
2022-10-21T03:59:38.267Z,11.84
2022-10-21T04:00:38.219Z,11.84
2022-10-21T04:01:38.308Z,11.84
2022-10-21T04:02:38.690Z,11.84
2022-10-21T04:03:38.242Z,11.91
2022-10-21T04:04:38.278Z,11.91
2022-10-21T04:05:38.285Z,11.84
2022-10-21T04:06:38.295Z,11.91
2022-10-21T04:07:38.301Z,11.91
2022-10-21T04:08:38.312Z,11.91
2022-10-21T04:09:38.203Z,11.91
2022-10-21T04:10:38.343Z,11.91
2022-10-21T04:11:38.321Z,11.99
2022-10-21T04:12:38.421Z,11.91
2022-10-21T04:13:38.255Z,11.99
2022-10-21T04:14:38.253Z,11.99
2022-10-21T04:15:38.285Z,11.99
2022-10-21T04:16:38.220Z,11.99
2022-10-21T04:17:38.261Z,11.99
2022-10-21T04:18:38.315Z,11.99
2022-10-21T04:19:38.304Z,11.99
2022-10-21T04:20:38.278Z,11.99
2022-10-21T04:21:38.286Z,11.99
2022-10-21T04:22:38.480Z,11.99
2022-10-21T04:23:38.197Z,11.99
2022-10-21T04:24:38.268Z,11.99
2022-10-21T04:25:38.216Z,11.99
2022-10-21T04:26:38.322Z,11.99
2022-10-21T04:27:38.301Z,11.99
2022-10-21T04:28:38.270Z,11.99
2022-10-21T04:29:38.195Z,11.99
2022-10-21T04:30:38.259Z,11.99
2022-10-21T04:31:38.273Z,11.91
2022-10-21T04:32:38.483Z,11.91
2022-10-21T04:33:38.273Z,11.99
2022-10-21T04:34:38.229Z,11.91
2022-10-21T04:35:38.228Z,11.91
2022-10-21T04:36:38.401Z,11.91
2022-10-21T04:37:38.277Z,11.91
2022-10-21T04:38:38.190Z,11.91
2022-10-21T04:39:38.294Z,11.91
2022-10-21T04:40:38.218Z,11.91
2022-10-21T04:41:38.312Z,11.91
2022-10-21T04:42:38.363Z,11.99
2022-10-21T04:43:38.208Z,11.99
2022-10-21T04:44:38.231Z,11.99
2022-10-21T04:45:38.237Z,11.99
2022-10-21T04:46:38.245Z,12.06
2022-10-21T04:47:38.535Z,12.06
2022-10-21T04:48:38.291Z,11.99
2022-10-21T04:49:38.234Z,11.99
2022-10-21T04:50:38.271Z,11.91
2022-10-21T04:51:38.285Z,11.91
2022-10-21T04:52:38.433Z,11.99
2022-10-21T04:53:38.232Z,11.99
2022-10-21T04:54:38.188Z,11.99
2022-10-21T04:55:38.306Z,11.99
2022-10-21T04:56:38.351Z,11.99
2022-10-21T04:57:38.335Z,11.99
2022-10-21T04:58:40.289Z,11.99
2022-10-21T04:59:38.246Z,11.99
2022-10-21T05:00:38.287Z,11.99
2022-10-21T05:01:38.246Z,11.99
2022-10-21T05:02:38.608Z,11.99
2022-10-21T05:03:38.197Z,12.06
2022-10-21T05:04:38.268Z,12.06
2022-10-21T05:05:38.223Z,11.99
2022-10-21T05:06:38.236Z,11.99
2022-10-21T05:07:38.296Z,11.99
2022-10-21T05:08:38.370Z,11.99
2022-10-21T05:09:38.282Z,11.99
2022-10-21T05:10:38.306Z,12.06
2022-10-21T05:11:38.233Z,11.99
2022-10-21T05:12:38.278Z,12.06
2022-10-21T05:13:38.319Z,11.99
2022-10-21T05:14:38.230Z,11.99
2022-10-21T05:15:38.221Z,12.06
2022-10-21T05:16:38.187Z,12.06
2022-10-21T05:17:38.457Z,12.13
2022-10-21T05:18:38.241Z,12.13
2022-10-21T05:19:38.284Z,12.21
2022-10-21T05:20:38.259Z,12.21
2022-10-21T05:21:38.266Z,12.21
2022-10-21T05:22:38.572Z,12.21
2022-10-21T05:23:38.308Z,12.21
2022-10-21T05:24:38.203Z,12.21
2022-10-21T05:25:38.284Z,12.13
2022-10-21T05:26:38.303Z,12.21
2022-10-21T05:27:38.253Z,12.21
2022-10-21T05:28:38.364Z,12.28
2022-10-21T05:29:38.300Z,12.28
2022-10-21T05:30:38.283Z,12.28
2022-10-21T05:31:38.217Z,12.21
2022-10-21T05:32:38.648Z,12.21
2022-10-21T05:33:38.203Z,12.21
2022-10-21T05:34:38.242Z,12.13
2022-10-21T05:35:38.300Z,12.13
2022-10-21T05:36:38.308Z,12.13
2022-10-21T05:37:38.259Z,12.13
2022-10-21T05:38:38.305Z,12.06
2022-10-21T05:39:38.267Z,12.13
2022-10-21T05:40:38.300Z,12.13
2022-10-21T05:41:38.294Z,12.13
2022-10-21T05:42:38.610Z,12.13
2022-10-21T05:43:38.341Z,12.13
2022-10-21T05:44:38.265Z,12.13
2022-10-21T05:45:38.202Z,12.13
2022-10-21T05:46:38.224Z,12.13
2022-10-21T05:47:38.240Z,12.06
2022-10-21T05:48:38.338Z,12.13
2022-10-21T05:49:38.238Z,12.06
2022-10-21T05:50:38.246Z,12.06
2022-10-21T05:51:38.250Z,12.13
2022-10-21T05:52:38.608Z,12.13
2022-10-21T05:53:38.255Z,12.06
2022-10-21T05:54:38.272Z,12.06
2022-10-21T05:55:38.311Z,12.06
2022-10-21T05:56:38.288Z,12.06
2022-10-21T05:57:38.299Z,12.06
2022-10-21T05:58:38.207Z,12.06
2022-10-21T05:59:38.327Z,11.99
2022-10-21T06:00:38.398Z,12.06
2022-10-21T06:01:38.228Z,12.06
2022-10-21T06:02:38.550Z,12.06
2022-10-21T06:03:38.266Z,12.06
2022-10-21T06:04:38.988Z,12.06
2022-10-21T06:05:40.248Z,12.06
2022-10-21T06:06:38.240Z,12.06
2022-10-21T06:07:38.469Z,12.06
2022-10-21T06:08:38.330Z,12.06
2022-10-21T06:09:38.210Z,12.06
2022-10-21T06:10:38.198Z,12.06
2022-10-21T06:11:38.296Z,12.06
2022-10-21T06:12:38.190Z,12.06
2022-10-21T06:13:38.292Z,12.06
2022-10-21T06:14:38.295Z,12.06
2022-10-21T06:15:38.315Z,12.06
2022-10-21T06:16:38.343Z,12.06
2022-10-21T06:17:38.510Z,12.06
2022-10-21T06:18:38.224Z,12.06
2022-10-21T06:19:38.259Z,12.06
2022-10-21T06:20:38.285Z,12.06
2022-10-21T06:21:38.195Z,12.06
2022-10-21T06:22:38.244Z,12.06
2022-10-21T06:23:38.291Z,12.13
2022-10-21T06:24:38.194Z,12.13
2022-10-21T06:25:38.200Z,12.13
2022-10-21T06:26:38.290Z,12.13
2022-10-21T06:27:38.587Z,12.13
2022-10-21T06:28:38.290Z,12.13
2022-10-21T06:29:38.297Z,12.13
2022-10-21T06:30:38.303Z,12.13
2022-10-21T06:31:38.312Z,12.13
2022-10-21T06:32:38.285Z,12.13
2022-10-21T06:33:38.260Z,12.21
2022-10-21T06:34:38.197Z,12.21
2022-10-21T06:35:38.254Z,12.21
2022-10-21T06:36:38.339Z,12.21
2022-10-21T06:37:38.491Z,12.13
2022-10-21T06:38:38.358Z,12.21
2022-10-21T06:39:38.254Z,12.21
2022-10-21T06:40:38.308Z,12.21
2022-10-21T06:41:38.296Z,12.21
2022-10-21T06:42:38.208Z,12.21
2022-10-21T06:43:38.288Z,12.21
2022-10-21T06:44:38.321Z,12.28
2022-10-21T06:45:38.292Z,12.21
2022-10-21T06:46:38.251Z,12.21
2022-10-21T06:47:38.491Z,12.21
2022-10-21T06:48:38.327Z,12.21
2022-10-21T06:49:38.207Z,12.21
2022-10-21T06:50:38.219Z,12.21
2022-10-21T06:51:38.292Z,12.21
2022-10-21T06:52:38.238Z,12.28
2022-10-21T06:53:39.376Z,12.28
2022-10-21T06:54:38.255Z,12.28
2022-10-21T06:55:38.265Z,12.28
2022-10-21T06:56:38.262Z,12.28
2022-10-21T06:57:38.519Z,12.21
2022-10-21T06:58:38.303Z,12.21
2022-10-21T06:59:38.311Z,12.21
2022-10-21T07:00:38.225Z,12.21
2022-10-21T07:01:55.609Z,12.21
2022-10-21T07:02:38.592Z,12.21
2022-10-21T07:03:38.349Z,12.21
2022-10-21T07:04:38.261Z,12.21
2022-10-21T07:05:38.209Z,12.21
2022-10-21T07:06:38.223Z,12.28
2022-10-21T07:07:38.739Z,12.21
2022-10-21T07:08:46.645Z,12.21
2022-10-21T07:09:38.502Z,12.21
2022-10-21T07:10:38.249Z,12.21
2022-10-21T07:11:38.241Z,12.21
2022-10-21T07:12:40.261Z,12.28
2022-10-21T07:13:38.194Z,12.21
2022-10-21T07:14:38.203Z,12.21
2022-10-21T07:15:38.234Z,12.28
2022-10-21T07:16:38.375Z,12.28
2022-10-21T07:17:38.523Z,12.28
2022-10-21T07:18:40.533Z,12.28
2022-10-21T07:19:38.311Z,12.28
2022-10-21T07:20:38.251Z,12.28
2022-10-21T07:21:38.202Z,12.36
2022-10-21T07:22:38.239Z,12.36
2022-10-21T07:23:38.227Z,12.36
2022-10-21T07:24:38.203Z,12.36
2022-10-21T07:25:38.341Z,12.36
2022-10-21T07:26:38.346Z,12.36
2022-10-21T07:27:38.600Z,12.36
2022-10-21T07:28:38.232Z,12.36
2022-10-21T07:29:38.202Z,12.36
2022-10-21T07:30:38.313Z,12.36
2022-10-21T07:31:38.287Z,12.44
2022-10-21T07:32:38.286Z,12.36
2022-10-21T07:33:38.268Z,12.44
2022-10-21T07:34:38.223Z,12.44
2022-10-21T07:35:38.253Z,12.44
2022-10-21T07:36:38.339Z,12.44
2022-10-21T07:37:38.609Z,12.44
2022-10-21T07:38:38.227Z,12.51
2022-10-21T07:39:38.218Z,12.51
2022-10-21T07:40:38.236Z,12.51
2022-10-21T07:41:38.236Z,12.51
2022-10-21T07:42:38.201Z,12.59
2022-10-21T07:43:38.247Z,12.59
2022-10-21T07:44:38.302Z,12.59
2022-10-21T07:45:38.278Z,12.59
2022-10-21T07:46:38.275Z,12.59
2022-10-21T07:47:38.568Z,12.67
2022-10-21T07:48:38.261Z,12.67
2022-10-21T07:49:38.243Z,12.59
2022-10-21T07:50:38.296Z,12.59
2022-10-21T07:51:38.362Z,12.59
2022-10-21T07:52:41.561Z,12.59
2022-10-21T07:53:38.300Z,12.59
2022-10-21T07:54:38.332Z,12.59
2022-10-21T07:55:38.214Z,12.67
2022-10-21T07:56:38.245Z,12.67
2022-10-21T07:57:38.347Z,12.59
2022-10-21T07:58:38.204Z,12.59
2022-10-21T07:59:38.290Z,12.59
2022-10-21T08:00:38.268Z,12.59
2022-10-21T08:01:38.327Z,12.67
2022-10-21T08:02:38.606Z,12.59
2022-10-21T08:03:38.320Z,12.59
2022-10-21T08:04:38.323Z,12.59
2022-10-21T08:05:38.318Z,12.67
2022-10-21T08:06:38.198Z,12.59
2022-10-21T08:07:38.355Z,12.59
2022-10-21T08:08:38.321Z,12.67
2022-10-21T08:09:38.204Z,12.59
2022-10-21T08:10:38.300Z,12.67
2022-10-21T08:11:38.257Z,12.67
2022-10-21T08:12:38.525Z,12.59
2022-10-21T08:13:38.243Z,12.67
2022-10-21T08:14:38.223Z,12.67
2022-10-21T08:15:38.269Z,12.67
2022-10-21T08:16:38.309Z,12.67
2022-10-21T08:17:38.276Z,12.67
2022-10-21T08:18:38.325Z,12.67
2022-10-21T08:19:40.255Z,12.67
2022-10-21T08:20:38.292Z,12.74
2022-10-21T08:21:38.295Z,12.67
2022-10-21T08:22:38.400Z,12.67
2022-10-21T08:23:38.259Z,12.67
2022-10-21T08:24:41.412Z,12.67
2022-10-21T08:25:38.220Z,12.74
2022-10-21T08:26:38.260Z,12.74
2022-10-21T08:27:38.309Z,12.74
2022-10-21T08:28:38.291Z,12.74
2022-10-21T08:29:40.007Z,12.74
2022-10-21T08:30:38.249Z,12.74
2022-10-21T08:31:38.295Z,12.74
2022-10-21T08:32:38.633Z,12.74
2022-10-21T08:33:38.263Z,12.74
2022-10-21T08:34:38.320Z,12.74
2022-10-21T08:35:38.255Z,12.74
2022-10-21T08:36:38.269Z,12.74
2022-10-21T08:37:38.209Z,12.67
2022-10-21T08:38:38.207Z,12.74
2022-10-21T08:39:38.305Z,12.74
2022-10-21T08:40:38.361Z,12.74
2022-10-21T08:41:38.317Z,12.82
2022-10-21T08:42:38.533Z,12.74
2022-10-21T08:43:38.261Z,12.74
2022-10-21T08:44:38.233Z,12.67
2022-10-21T08:45:38.238Z,12.74
2022-10-21T08:46:38.246Z,12.67
2022-10-21T08:47:38.574Z,12.67
2022-10-21T08:48:38.246Z,12.74
2022-10-21T08:49:38.271Z,12.74
2022-10-21T08:50:38.323Z,12.67
2022-10-21T08:51:38.251Z,12.67
2022-10-21T08:52:38.205Z,12.67
2022-10-21T08:53:38.291Z,12.74
2022-10-21T08:54:38.295Z,12.74
2022-10-21T08:55:38.359Z,12.67
2022-10-21T08:56:38.318Z,12.74
2022-10-21T08:57:38.572Z,12.74
2022-10-21T08:58:38.264Z,12.74
2022-10-21T08:59:38.392Z,12.67
2022-10-21T09:00:38.289Z,12.74
2022-10-21T09:01:38.242Z,12.67
2022-10-21T09:02:38.231Z,12.67
2022-10-21T09:03:38.252Z,12.74
2022-10-21T09:04:38.259Z,12.67
2022-10-21T09:05:38.207Z,12.67
2022-10-21T09:06:38.306Z,12.67
2022-10-21T09:07:38.541Z,12.67
2022-10-21T09:08:38.346Z,12.74
2022-10-21T09:09:38.291Z,12.67
2022-10-21T09:10:38.301Z,12.74
2022-10-21T09:11:38.338Z,12.82
2022-10-21T09:12:38.350Z,12.82
2022-10-21T09:13:38.323Z,12.9
2022-10-21T09:14:38.464Z,12.9
2022-10-21T09:15:38.230Z,12.9
2022-10-21T09:16:38.237Z,12.98
2022-10-21T09:17:38.497Z,12.98
2022-10-21T09:18:38.250Z,12.98
2022-10-21T09:19:38.219Z,12.9
2022-10-21T09:20:38.303Z,12.98
2022-10-21T09:21:38.235Z,12.98
2022-10-21T09:22:38.262Z,12.98
2022-10-21T09:23:38.271Z,12.9
2022-10-21T09:24:38.293Z,12.9
2022-10-21T09:25:38.295Z,12.98
2022-10-21T09:26:40.369Z,12.98
2022-10-21T09:27:55.004Z,12.98
2022-10-21T09:28:38.247Z,12.98
2022-10-21T09:29:38.300Z,12.98
2022-10-21T09:30:38.293Z,12.98
2022-10-21T09:31:38.251Z,12.9
2022-10-21T09:32:38.230Z,12.98
2022-10-21T09:33:38.257Z,12.9
2022-10-21T09:34:38.247Z,12.9
2022-10-21T09:35:38.296Z,12.9
2022-10-21T09:36:38.290Z,12.9
2022-10-21T09:37:38.727Z,12.9
2022-10-21T09:38:38.299Z,12.9
2022-10-21T09:39:38.344Z,12.9
2022-10-21T09:40:38.286Z,12.9
2022-10-21T09:41:38.216Z,12.82
2022-10-21T09:42:47.435Z,12.82
2022-10-21T09:43:38.347Z,12.82
2022-10-21T09:44:38.216Z,12.9
2022-10-21T09:45:38.316Z,12.82
2022-10-21T09:46:38.325Z,12.82
2022-10-21T09:47:38.265Z,12.82
2022-10-21T09:48:50.229Z,12.82
2022-10-21T09:50:38.253Z,12.82
2022-10-21T09:51:38.293Z,12.82
2022-10-21T09:52:38.534Z,12.9
2022-10-21T09:53:38.260Z,12.9
2022-10-21T09:54:38.309Z,12.82
2022-10-21T09:55:38.215Z,12.82
2022-10-21T09:56:38.292Z,12.9
2022-10-21T09:57:38.299Z,12.9
2022-10-21T09:58:38.211Z,12.9
2022-10-21T09:59:38.299Z,12.9
2022-10-21T10:00:38.325Z,12.9
2022-10-21T10:01:38.356Z,12.98
2022-10-21T10:02:38.683Z,12.98
2022-10-21T10:03:38.264Z,12.98
2022-10-21T10:04:38.273Z,12.98
2022-10-21T10:05:38.282Z,12.98
2022-10-21T10:06:38.223Z,12.98
2022-10-21T10:07:38.250Z,13.06
2022-10-21T10:08:38.579Z,13.06
2022-10-21T10:09:38.318Z,12.98
2022-10-21T10:10:38.265Z,13.06
2022-10-21T10:11:38.281Z,13.06
2022-10-21T10:12:38.557Z,13.06
2022-10-21T10:13:38.231Z,13.06
2022-10-21T10:14:38.264Z,13.06
2022-10-21T10:15:38.232Z,13.06
2022-10-21T10:16:38.295Z,13.06
2022-10-21T10:17:38.264Z,13.14
2022-10-21T10:18:38.272Z,13.14
2022-10-21T10:19:38.261Z,13.14
2022-10-21T10:20:38.234Z,13.14
2022-10-21T10:21:38.216Z,13.14
2022-10-21T10:22:38.646Z,13.22
2022-10-21T10:23:38.308Z,13.22
2022-10-21T10:24:38.397Z,13.14
2022-10-21T10:25:38.277Z,13.22
2022-10-21T10:26:38.268Z,13.22
2022-10-21T10:27:38.329Z,13.22
2022-10-21T10:28:38.427Z,13.22
2022-10-21T10:29:38.296Z,13.3
2022-10-21T10:30:38.240Z,13.3
2022-10-21T10:31:38.241Z,13.3
2022-10-21T10:32:38.590Z,13.38
2022-10-21T10:33:40.247Z,13.38
2022-10-21T10:34:38.222Z,13.38
2022-10-21T10:35:38.247Z,13.3
2022-10-21T10:36:38.300Z,13.3
2022-10-21T10:37:38.321Z,13.3
2022-10-21T10:38:38.249Z,13.38
2022-10-21T10:39:38.402Z,13.3
2022-10-21T10:40:38.543Z,13.3
2022-10-21T10:41:38.272Z,13.3
2022-10-21T10:42:38.690Z,13.38
2022-10-21T10:43:38.266Z,13.38
2022-10-21T10:44:38.260Z,13.38
2022-10-21T10:45:38.219Z,13.38
2022-10-21T10:46:38.276Z,13.46
2022-10-21T10:47:38.567Z,13.46
2022-10-21T10:48:38.319Z,13.54
2022-10-21T10:49:38.426Z,13.54
2022-10-21T10:50:38.598Z,13.54
2022-10-21T10:51:38.463Z,13.63
2022-10-21T10:52:38.410Z,13.63
2022-10-21T10:53:38.255Z,13.63
2022-10-21T10:54:38.647Z,13.54
2022-10-21T10:55:38.531Z,13.54
2022-10-21T10:56:38.537Z,13.63
2022-10-21T10:57:44.390Z,13.63
2022-10-21T10:58:38.234Z,13.63
2022-10-21T10:59:38.331Z,13.63
2022-10-21T11:00:38.324Z,13.63
2022-10-21T11:01:38.386Z,13.54
2022-10-21T11:02:38.306Z,13.54
2022-10-21T11:03:41.286Z,13.54
2022-10-21T11:04:38.342Z,13.54
2022-10-21T11:05:38.326Z,13.46
2022-10-21T11:06:38.326Z,13.46
2022-10-21T11:07:38.899Z,13.46
2022-10-21T11:08:38.317Z,13.54
2022-10-21T11:09:38.235Z,13.54
2022-10-21T11:10:38.301Z,13.63
2022-10-21T11:11:38.477Z,13.63
2022-10-21T11:12:38.259Z,13.63
2022-10-21T11:13:41.935Z,13.63
2022-10-21T11:14:38.285Z,13.63
2022-10-21T11:15:38.331Z,13.71
2022-10-21T11:16:50.363Z,13.71
2022-10-21T11:17:38.723Z,13.87
2022-10-21T11:18:38.465Z,13.96
2022-10-21T11:19:38.347Z,13.96
2022-10-21T11:20:38.310Z,14.04
2022-10-21T11:21:38.321Z,14.04
2022-10-21T11:22:38.217Z,14.13
2022-10-21T11:23:38.271Z,14.21
2022-10-21T11:24:38.240Z,14.3
2022-10-21T11:25:38.248Z,14.38
2022-10-21T11:26:38.363Z,14.47
2022-10-21T11:27:38.757Z,14.56
2022-10-21T11:28:38.304Z,14.56
2022-10-21T11:29:38.298Z,14.56
2022-10-21T11:30:38.290Z,14.65
2022-10-21T11:31:53.726Z,14.65
2022-10-21T11:32:38.287Z,14.82
2022-10-21T11:33:38.305Z,14.82
2022-10-21T11:34:38.325Z,14.82
2022-10-21T11:35:38.315Z,14.91
2022-10-21T11:36:38.266Z,15.09
2022-10-21T11:37:38.677Z,15.18
2022-10-21T11:38:38.337Z,15.18
2022-10-21T11:39:38.235Z,15.27
2022-10-21T11:40:40.365Z,15.36
2022-10-21T11:41:38.235Z,15.36
2022-10-21T11:42:38.708Z,15.36
2022-10-21T11:43:38.319Z,15.45
2022-10-21T11:44:38.288Z,15.45
2022-10-21T11:45:38.234Z,15.45
2022-10-21T11:46:38.326Z,15.55
2022-10-21T11:47:38.293Z,15.64
2022-10-21T11:48:38.300Z,15.64
2022-10-21T11:49:38.300Z,15.83
2022-10-21T11:50:38.287Z,15.83
2022-10-21T11:51:38.259Z,15.92
2022-10-21T11:52:38.728Z,15.83
2022-10-21T11:53:38.334Z,15.92
2022-10-21T11:54:45.529Z,15.83
2022-10-21T11:55:38.378Z,16.01
2022-10-21T11:56:38.258Z,16.01
2022-10-21T11:57:38.356Z,16.21
2022-10-21T11:58:38.322Z,16.21
2022-10-21T11:59:38.467Z,16.3
2022-10-21T12:00:38.527Z,16.21
2022-10-21T12:01:38.611Z,16.21
2022-10-21T12:02:38.969Z,16.3
2022-10-21T12:03:38.638Z,16.21
2022-10-21T12:04:38.243Z,16.21
2022-10-21T12:05:38.567Z,16.21
2022-10-21T12:06:38.287Z,16.21
2022-10-21T12:07:38.538Z,16.21
2022-10-21T12:08:41.365Z,16.3
2022-10-21T12:09:38.332Z,16.4
2022-10-21T12:10:38.369Z,16.5
2022-10-21T12:11:38.337Z,16.69
2022-10-21T12:12:38.644Z,16.89
2022-10-21T12:13:38.461Z,17.09
2022-10-21T12:14:38.362Z,17.19
2022-10-21T12:15:38.262Z,17.29
2022-10-21T12:16:38.291Z,17.29
2022-10-21T12:17:38.249Z,17.29
2022-10-21T12:18:38.274Z,17.6
2022-10-21T12:19:38.283Z,17.8
2022-10-21T12:20:38.332Z,18.22
2022-10-21T12:21:38.400Z,18.54
2022-10-21T12:22:38.615Z,18.98
2022-10-21T12:23:38.233Z,19.42
2022-10-21T12:24:38.280Z,19.76
2022-10-21T12:25:38.323Z,20.33
2022-10-21T12:27:38.739Z,21.41
2022-10-21T12:28:38.234Z,21.45
2022-10-21T12:29:38.353Z,21.78
2022-10-21T12:30:38.323Z,20.39
2022-10-21T12:31:38.255Z,20.8
2022-10-21T12:32:38.327Z,20.05
2022-10-21T12:33:38.253Z,18.99
2022-10-21T12:34:38.377Z,19.09
2022-10-21T12:35:38.332Z,19.14
2022-10-21T12:36:38.313Z,19.64
2022-10-21T12:37:38.573Z,19.98
2022-10-21T12:38:38.249Z,19.88
2022-10-21T12:39:38.258Z,20.51
2022-10-21T12:40:38.258Z,19.87
2022-10-21T12:41:38.250Z,19.65
2022-10-21T12:42:38.241Z,19.53
2022-10-21T12:43:38.279Z,19.2
2022-10-21T12:44:38.380Z,18.98
2022-10-21T12:45:38.295Z,18.76
2022-10-21T12:46:40.166Z,18.33
2022-10-21T12:47:40.694Z,18.12
2022-10-21T12:48:38.418Z,17.91
2022-10-21T12:49:38.244Z,17.8
2022-10-21T12:50:38.289Z,17.7
2022-10-21T12:51:38.280Z,17.49
2022-10-21T12:52:38.333Z,17.39
2022-10-21T12:53:38.348Z,17.49
2022-10-21T12:54:38.254Z,17.29
2022-10-21T12:55:38.262Z,17.19
2022-10-21T12:56:38.262Z,17.29
2022-10-21T12:57:38.769Z,17.39
2022-10-21T12:58:38.262Z,17.6
2022-10-21T12:59:38.290Z,17.7